Time;durP1;ratioP1;P1;durP2;ratioP2;P2;SDS_P1;SDS_P2;PMS_P1;PMS_P2;Temp;Humidity;BMP_temperature;BMP_pressure;BME280_temperature;BME280_humidity;BME280_pressure;Samples;Min_cycle;Max_cycle;Signal;HPM_P1;HPM_P2
2022/03/17 00:01:26;;;;;;;1.05;0.40;;;;;;;6.34;100.00;100559.00;7400967;19;20011;-55
2022/03/17 00:03:52;;;;;;;0.28;0.28;;;;;;;6.33;100.00;100569.28;7398870;19;20021;-55
2022/03/17 00:06:18;;;;;;;0.28;0.28;;;;;;;6.23;100.00;100558.47;7398817;19;20021;-55
2022/03/17 00:08:43;;;;;;;0.40;0.40;;;;;;;6.17;100.00;100569.28;7399805;19;20492;-55
2022/03/17 00:11:09;;;;;;;1.65;1.05;;;;;;;6.10;100.00;100567.44;7400855;19;20018;-54
2022/03/17 00:13:35;;;;;;;0.40;0.40;;;;;;;6.05;100.00;100573.47;7401028;19;20074;-55
2022/03/17 00:16:01;;;;;;;11.00;0.98;;;;;;;6.01;100.00;100575.53;7399365;19;20479;-55
2022/03/17 00:18:26;;;;;;;0.50;0.50;;;;;;;6.02;100.00;100588.13;7396598;19;20038;-54
2022/03/17 00:20:52;;;;;;;5.97;0.50;;;;;;;6.02;100.00;100581.84;7398963;19;20040;-55
2022/03/17 00:23:18;;;;;;;2.85;0.63;;;;;;;5.97;100.00;100583.13;7396515;19;20021;-55
2022/03/17 00:25:44;;;;;;;0.47;0.47;;;;;;;5.94;100.00;100591.47;7399366;19;20014;-55
2022/03/17 00:28:10;;;;;;;0.47;0.47;;;;;;;5.92;100.00;100589.13;7397349;19;20074;-55
2022/03/17 00:30:36;;;;;;;0.75;0.75;;;;;;;5.91;100.00;100597.88;7400347;19;20011;-55
2022/03/17 00:33:02;;;;;;;7.57;1.27;;;;;;;5.86;100.00;100599.13;7399333;19;20337;-55
2022/03/17 00:35:38;;;;;;;1.42;0.90;;;;;;;5.86;100.00;100609.41;7399403;19;20015;-55
2022/03/17 00:38:09;;;;;;;0.32;0.32;;;;;;;5.80;100.00;100608.31;7397763;19;20023;-55
2022/03/17 00:40:37;;;;;;;0.57;0.57;;;;;;;5.72;100.00;100604.91;7398478;19;20010;-55
2022/03/17 00:43:08;;;;;;;0.52;0.50;;;;;;;5.73;100.00;100612.00;7399017;19;20035;-55
2022/03/17 00:45:34;;;;;;;0.57;0.57;;;;;;;5.63;100.00;100612.97;7398522;19;20010;-55
2022/03/17 00:48:00;;;;;;;1.10;0.93;;;;;;;5.64;100.00;100614.53;7398050;19;20463;-55
2022/03/17 00:50:26;;;;;;;0.60;0.60;;;;;;;5.71;100.00;100613.63;7399379;19;20074;-55
2022/03/17 00:52:52;;;;;;;0.90;0.60;;;;;;;5.77;100.00;100620.22;7397542;19;20029;-54
2022/03/17 00:55:19;;;;;;;1.02;1.02;;;;;;;5.77;100.00;100629.28;7398332;19;20059;-55
2022/03/17 00:57:45;;;;;;;0.35;0.35;;;;;;;5.73;100.00;100630.56;7395145;19;20086;-55
2022/03/17 01:00:14;;;;;;;0.93;0.47;;;;;;;5.69;100.00;100636.16;7397325;19;20035;-55
2022/03/17 01:02:44;;;;;;;1.65;0.98;;;;;;;5.70;100.00;100646.00;7397289;19;20034;-55
2022/03/17 01:05:10;;;;;;;5.97;1.45;;;;;;;5.76;100.00;100636.00;7399009;19;20038;-55
2022/03/17 01:07:40;;;;;;;0.50;0.50;;;;;;;5.78;100.00;100638.38;7399849;19;20015;-55
2022/03/17 01:10:08;;;;;;;0.52;0.52;;;;;;;5.82;100.00;100634.34;7398692;19;20477;-55
2022/03/17 01:12:34;;;;;;;11.70;1.15;;;;;;;5.76;100.00;100644.28;7397750;19;20474;-55
2022/03/17 01:15:01;;;;;;;1.55;0.98;;;;;;;5.75;100.00;100642.75;7397875;19;20078;-55
2022/03/17 01:17:27;;;;;;;1.65;0.93;;;;;;;5.74;100.00;100652.22;7395836;19;20015;-55
2022/03/17 01:19:53;;;;;;;1.55;1.17;;;;;;;5.77;100.00;100645.09;7396326;19;20018;-55
2022/03/17 01:22:21;;;;;;;0.65;0.55;;;;;;;5.75;100.00;100658.53;7398121;19;20033;-55
2022/03/17 01:24:49;;;;;;;0.22;0.20;;;;;;;5.77;100.00;100659.69;7397244;19;20029;-55
2022/03/17 01:27:19;;;;;;;0.43;0.38;;;;;;;5.74;100.00;100668.81;7396436;19;20018;-55
2022/03/17 01:29:46;;;;;;;1.15;0.77;;;;;;;5.73;100.00;100672.78;7397005;19;20492;-55
2022/03/17 01:32:12;;;;;;;0.55;0.55;;;;;;;5.69;100.00;100677.59;7400131;19;20082;-55
2022/03/17 01:34:37;;;;;;;0.40;0.40;;;;;;;5.69;100.00;100665.78;7396520;19;20023;-55
2022/03/17 01:37:03;;;;;;;1.15;1.15;;;;;;;5.67;100.00;100671.72;7394794;19;20014;-55
2022/03/17 01:39:29;;;;;;;0.40;0.40;;;;;;;5.66;100.00;100678.44;7396612;19;20097;-55
2022/03/17 01:41:58;;;;;;;0.55;0.55;;;;;;;5.66;100.00;100677.66;7400791;19;20017;-55
2022/03/17 01:44:25;;;;;;;0.20;0.20;;;;;;;5.61;100.00;100686.44;7397067;19;20035;-55
2022/03/17 01:49:38;;;;;;;0.13;0.13;;;;;;;5.50;100.00;100703.19;7396791;19;20025;-55
2022/03/17 01:52:05;;;;;;;1.27;1.13;;;;;;;5.48;100.00;100702.81;7400589;19;20077;-55
2022/03/17 01:54:31;;;;;;;0.40;0.40;;;;;;;5.48;100.00;100711.09;7393930;19;20011;-55
2022/03/17 01:56:58;;;;;;;0.57;0.57;;;;;;;5.45;100.00;100711.97;7390824;19;20011;-55
2022/03/17 01:59:26;;;;;;;0.60;0.60;;;;;;;5.44;100.00;100721.44;7395271;19;20010;-55
2022/03/17 02:01:54;;;;;;;10.95;1.05;;;;;;;5.43;100.00;100725.41;7401093;19;20018;-55
2022/03/17 02:04:20;;;;;;;0.30;0.30;;;;;;;5.41;100.00;100721.50;7395509;19;20026;-55
2022/03/17 02:06:47;;;;;;;0.20;0.20;;;;;;;5.47;100.00;100720.63;7396027;19;20018;-55
2022/03/17 02:09:13;;;;;;;1.38;0.93;;;;;;;5.53;100.00;100724.44;7395083;19;20015;-55
2022/03/17 02:14:23;;;;;;;0.30;0.30;;;;;;;5.45;100.00;100717.50;7396740;19;20010;-55
2022/03/17 02:16:52;;;;;;;0.28;0.28;;;;;;;5.54;100.00;100717.75;7394456;19;20341;-55
2022/03/17 02:19:22;;;;;;;8.30;0.95;;;;;;;5.56;100.00;100723.63;7394090;19;20015;-55
2022/03/17 02:21:48;;;;;;;0.90;0.90;;;;;;;5.53;100.00;100729.19;7396518;19;20015;-55
2022/03/17 02:26:59;;;;;;;0.25;0.25;;;;;;;5.49;100.00;100729.25;7394636;19;20042;-55
2022/03/17 02:29:26;;;;;;;0.55;0.47;;;;;;;5.44;100.00;100735.25;7393294;19;20018;-55
2022/03/17 02:31:52;;;;;;;18.33;1.20;;;;;;;5.39;100.00;100732.97;7398571;19;20021;-55
2022/03/17 02:34:19;;;;;;;11.02;1.13;;;;;;;5.34;100.00;100744.50;7393822;19;20021;-55
2022/03/17 02:36:49;;;;;;;0.77;0.77;;;;;;;5.27;100.00;100739.06;7394276;19;20015;-55
2022/03/17 02:39:19;;;;;;;0.52;0.52;;;;;;;5.19;100.00;100748.66;7392783;19;20031;-55
2022/03/17 02:41:45;;;;;;;0.40;0.40;;;;;;;5.11;100.00;100747.22;7396706;19;20018;-55
2022/03/17 02:44:12;;;;;;;0.52;0.52;;;;;;;5.02;100.00;100749.72;7394708;19;20042;-55
2022/03/17 02:46:38;;;;;;;0.30;0.30;;;;;;;5.03;100.00;100745.75;7392289;19;20018;-55
2022/03/17 02:49:04;;;;;;;0.68;0.68;;;;;;;4.98;100.00;100749.75;7394828;19;20056;-55
2022/03/17 02:51:31;;;;;;;0.20;0.20;;;;;;;4.89;100.00;100748.72;7397994;19;20026;-55
2022/03/17 02:53:57;;;;;;;0.35;0.35;;;;;;;4.82;100.00;100751.56;7394690;19;20042;-55
2022/03/17 02:56:23;;;;;;;0.57;0.47;;;;;;;4.83;100.00;100744.84;7395488;19;20014;-55
2022/03/17 02:58:48;;;;;;;0.80;0.80;;;;;;;4.83;100.00;100744.84;7392615;19;20436;-55
2022/03/17 03:01:14;;;;;;;0.50;0.50;;;;;;;4.78;100.00;100739.78;7396502;19;20041;-55
2022/03/17 03:03:39;;;;;;;0.98;0.98;;;;;;;4.81;100.00;100733.47;7393616;19;20011;-55
2022/03/17 03:06:06;;;;;;;0.45;0.20;;;;;;;4.79;100.00;100736.59;7392395;19;20010;-55
2022/03/17 03:08:33;;;;;;;0.65;0.65;;;;;;;4.74;100.00;100739.06;7395235;19;20025;-55
2022/03/17 03:10:59;;;;;;;0.43;0.43;;;;;;;4.69;100.00;100742.28;7397784;19;20469;-55
2022/03/17 03:13:25;;;;;;;0.20;0.20;;;;;;;4.64;100.00;100749.03;7393429;19;20027;-55
2022/03/17 03:15:50;;;;;;;5.93;0.50;;;;;;;4.56;100.00;100745.59;7394463;19;20014;-55
2022/03/17 03:18:17;;;;;;;1.27;0.63;;;;;;;4.53;100.00;100746.41;7394168;19;20025;-55
2022/03/17 03:20:43;;;;;;;0.77;0.77;;;;;;;4.49;100.00;100748.44;7395769;19;20125;-55
2022/03/17 03:23:09;;;;;;;0.68;0.68;;;;;;;4.45;100.00;100744.94;7391352;19;20038;-55
2022/03/17 03:25:34;;;;;;;0.65;0.65;;;;;;;4.39;100.00;100745.81;7391998;19;20066;-55
2022/03/17 03:28:07;;;;;;;0.88;0.88;;;;;;;4.38;100.00;100747.78;7394125;19;20010;-55
2022/03/17 03:30:33;;;;;;;1.88;1.02;;;;;;;4.35;100.00;100751.34;7393225;19;20029;-55
2022/03/17 03:32:59;;;;;;;1.60;0.85;;;;;;;4.30;100.00;100754.56;7392972;19;20016;-55
2022/03/17 03:38:09;;;;;;;0.43;0.40;;;;;;;4.35;100.00;100762.38;7392716;19;20018;-55
2022/03/17 03:40:34;;;;;;;4.97;0.77;;;;;;;4.29;100.00;100768.75;7396367;19;20018;-59
2022/03/17 03:43:00;;;;;;;0.40;0.40;;;;;;;4.23;100.00;100770.38;7391956;19;20373;-55
2022/03/17 03:45:26;;;;;;;0.45;0.45;;;;;;;4.16;100.00;100779.50;7395003;19;20014;-55
2022/03/17 03:47:52;;;;;;;6.03;0.80;;;;;;;4.12;100.00;100775.22;7392799;19;20018;-55
2022/03/17 03:50:18;;;;;;;0.82;0.73;;;;;;;4.06;100.00;100780.41;7393023;19;20030;-55
2022/03/17 03:52:43;;;;;;;0.50;0.50;;;;;;;4.02;100.00;100782.44;7390844;19;20019;-55
2022/03/17 03:55:10;;;;;;;3.40;0.73;;;;;;;4.01;100.00;100786.34;7393190;19;20002;-55
2022/03/17 03:57:36;;;;;;;0.43;0.43;;;;;;;3.97;100.00;100782.84;7393292;19;20070;-55
2022/03/17 04:00:12;;;;;;;0.38;0.38;;;;;;;3.96;100.00;100778.56;7391273;19;20125;-54
2022/03/17 04:02:38;;;;;;;0.55;0.55;;;;;;;3.94;100.00;100786.44;7391010;19;20070;-54
2022/03/17 04:05:03;;;;;;;0.30;0.30;;;;;;;3.92;100.00;100786.03;7390514;19;20014;-55
2022/03/17 04:07:29;;;;;;;1.08;1.08;;;;;;;3.90;100.00;100791.19;7391003;19;20074;-55
2022/03/17 04:09:55;;;;;;;0.52;0.52;;;;;;;3.83;100.00;100797.53;7391957;19;20015;-55
2022/03/17 04:12:20;;;;;;;0.68;0.68;;;;;;;3.82;100.00;100801.50;7392555;19;20460;-55
2022/03/17 04:14:46;;;;;;;0.30;0.30;;;;;;;3.81;100.00;100804.66;7392138;19;20017;-54
2022/03/17 04:17:11;;;;;;;2.70;1.80;;;;;;;3.82;100.00;100797.94;7392484;19;20021;-55
2022/03/17 04:19:37;;;;;;;0.95;0.60;;;;;;;3.78;100.00;100805.47;7392734;19;20479;-54
2022/03/17 04:22:03;;;;;;;0.93;0.93;;;;;;;3.73;100.00;100814.16;7395710;19;20017;-54
2022/03/17 04:24:28;;;;;;;9.38;0.80;;;;;;;3.70;100.00;100821.25;7391035;19;20094;-54
2022/03/17 04:26:54;;;;;;;16.77;1.02;;;;;;;3.70;100.00;100818.50;7390587;19;20043;-54
2022/03/17 04:29:19;;;;;;;0.60;0.60;;;;;;;3.67;100.00;100821.28;7392572;19;20015;-54
2022/03/17 04:31:45;;;;;;;0.50;0.50;;;;;;;3.69;100.00;100816.16;7395979;19;20038;-54
2022/03/17 04:34:11;;;;;;;0.40;0.40;;;;;;;3.66;100.00;100825.25;7393521;19;20019;-54
2022/03/17 04:36:37;;;;;;;0.63;0.63;;;;;;;3.63;100.00;100824.09;7399053;19;20022;-54
2022/03/17 04:39:04;;;;;;;0.22;0.22;;;;;;;3.60;100.00;100826.84;7396701;19;20014;-54
2022/03/17 04:41:30;;;;;;;0.82;0.82;;;;;;;3.61;100.00;100825.69;7401134;19;20018;-54
2022/03/17 04:43:55;;;;;;;1.05;1.02;;;;;;;3.62;100.00;100835.50;7397921;19;20499;-54
2022/03/17 04:46:22;;;;;;;2.00;0.90;;;;;;;3.56;100.00;100837.09;7399264;19;20019;-54
2022/03/17 04:48:47;;;;;;;0.75;0.75;;;;;;;3.55;100.00;100836.31;7399149;19;20022;-54
2022/03/17 04:51:13;;;;;;;0.60;0.60;;;;;;;3.54;100.00;100843.03;7401834;19;20352;-54
2022/03/17 04:53:38;;;;;;;0.60;0.60;;;;;;;3.50;100.00;100844.25;7399334;19;20390;-54
2022/03/17 04:56:09;;;;;;;0.52;0.52;;;;;;;3.51;100.00;100846.56;7397951;19;20078;-54
2022/03/17 04:58:37;;;;;;;0.28;0.28;;;;;;;3.49;100.00;100854.47;7395917;19;20017;-54
2022/03/17 05:01:04;;;;;;;5.78;1.20;;;;;;;3.46;100.00;100862.75;7397930;19;20466;-54
2022/03/17 05:03:31;;;;;;;0.60;0.60;;;;;;;3.38;100.00;100864.75;7397979;19;20021;-54
2022/03/17 05:05:57;;;;;;;0.77;0.77;;;;;;;3.42;100.00;100870.25;7398824;19;20015;-54
2022/03/17 05:08:23;;;;;;;0.50;0.50;;;;;;;3.35;100.00;100870.28;7398550;19;20578;-54
2022/03/17 05:10:52;;;;;;;1.95;1.80;;;;;;;3.37;100.00;100876.19;7399565;19;20333;-54
2022/03/17 05:13:25;;;;;;;0.60;0.60;;;;;;;3.35;100.00;100882.09;7397816;19;20503;-54
2022/03/17 05:15:51;;;;;;;1.25;1.10;;;;;;;3.31;100.00;100878.56;7397912;19;20022;-54
2022/03/17 05:18:17;;;;;;;0.30;0.30;;;;;;;3.33;100.00;100884.47;7393830;19;20011;-54
2022/03/17 05:20:43;;;;;;;0.65;0.60;;;;;;;3.35;100.00;100886.81;7399600;19;20021;-54
2022/03/17 05:23:11;;;;;;;1.13;1.02;;;;;;;3.36;100.00;100885.59;7399288;19;20352;-54
2022/03/17 05:25:40;;;;;;;0.80;0.80;;;;;;;3.35;100.00;100897.81;7398896;19;20344;-54
2022/03/17 05:28:10;;;;;;;1.30;1.20;;;;;;;3.33;100.00;100897.44;7398376;19;20015;-54
2022/03/17 05:30:38;;;;;;;0.70;0.70;;;;;;;3.34;100.00;100904.50;7399383;19;20108;-54
2022/03/17 05:33:04;;;;;;;0.22;0.22;;;;;;;3.35;100.00;100903.31;7397738;19;20014;-53
2022/03/17 05:35:31;;;;;;;0.70;0.70;;;;;;;3.32;100.00;100901.38;7395511;19;20397;-54
2022/03/17 05:37:57;;;;;;;0.47;0.47;;;;;;;3.31;100.00;100905.31;7393680;19;20011;-54
2022/03/17 05:40:23;;;;;;;1.17;0.98;;;;;;;3.33;100.00;100905.69;7398801;19;20011;-54
2022/03/17 05:42:53;;;;;;;2.08;1.33;;;;;;;3.29;100.00;100913.94;7397645;19;20043;-54
2022/03/17 05:45:20;;;;;;;0.88;0.88;;;;;;;3.30;100.00;100917.50;7394301;19;20462;-54
2022/03/17 05:47:48;;;;;;;1.00;1.00;;;;;;;3.29;100.00;100915.94;7396889;19;20014;-54
2022/03/17 05:50:16;;;;;;;0.65;0.65;;;;;;;3.27;100.00;100921.06;7397387;19;20476;-54
2022/03/17 05:52:43;;;;;;;0.28;0.28;;;;;;;3.30;100.00;100917.50;7396838;19;20015;-54
2022/03/17 05:55:15;;;;;;;0.77;0.77;;;;;;;3.34;100.00;100929.28;7394364;19;20010;-54
2022/03/17 05:57:41;;;;;;;0.73;0.73;;;;;;;3.36;100.00;100921.41;7396285;19;20349;-54
2022/03/17 06:00:10;;;;;;;0.88;0.88;;;;;;;3.34;100.00;100929.28;7395324;19;20014;-54
2022/03/17 06:02:37;;;;;;;0.68;0.68;;;;;;;3.33;100.00;100933.22;7396239;19;20029;-54
2022/03/17 06:05:04;;;;;;;0.85;0.85;;;;;;;3.31;100.00;100941.09;7395163;19;20010;-54
2022/03/17 06:07:36;;;;;;;0.40;0.40;;;;;;;3.28;100.00;100950.16;7394893;19;20018;-54
2022/03/17 06:10:06;;;;;;;1.08;1.08;;;;;;;3.26;100.00;100955.28;7395228;19;20026;-54
2022/03/17 06:12:32;;;;;;;0.68;0.68;;;;;;;3.22;100.00;100951.75;7391867;19;20011;-53
2022/03/17 06:14:58;;;;;;;0.60;0.60;;;;;;;3.21;100.00;100952.91;7393566;19;20074;-54
2022/03/17 06:17:39;;;;;;;0.75;0.75;;;;;;;3.16;100.00;100956.09;7395684;19;20025;-53
2022/03/17 06:20:05;;;;;;;0.77;0.77;;;;;;;3.19;100.00;100960.78;7397056;19;20024;-53
2022/03/17 06:22:32;;;;;;;0.82;0.82;;;;;;;3.11;100.00;100965.53;7394550;19;20500;-53
2022/03/17 06:24:57;;;;;;;5.25;1.48;;;;;;;3.11;100.00;100964.75;7395416;19;20011;-53
2022/03/17 06:27:24;;;;;;;0.80;0.80;;;;;;;3.15;100.00;100960.03;7395874;19;20042;-53
2022/03/17 06:29:49;;;;;;;0.85;0.85;;;;;;;3.21;100.00;100961.19;7396677;19;20038;-53
2022/03/17 06:32:15;;;;;;;5.05;1.35;;;;;;;3.16;100.00;100967.09;7397681;19;20070;-53
2022/03/17 06:34:40;;;;;;;3.25;1.30;;;;;;;3.18;100.00;100970.25;7395880;19;20014;-53
2022/03/17 06:37:06;;;;;;;0.82;0.68;;;;;;;3.24;100.00;100961.19;7394102;19;20014;-53
2022/03/17 06:39:31;;;;;;;2.38;0.90;;;;;;;3.27;100.00;100967.88;7394946;19;20035;-53
2022/03/17 06:41:57;;;;;;;0.52;0.52;;;;;;;3.24;100.00;100976.91;7399045;19;20010;-53
2022/03/17 06:44:22;;;;;;;0.73;0.40;;;;;;;3.26;100.00;100974.53;7395399;19;20022;-52
2022/03/17 06:46:48;;;;;;;0.40;0.40;;;;;;;3.28;100.00;100980.44;7395263;19;20388;-53
2022/03/17 06:49:14;;;;;;;5.72;2.20;;;;;;;3.30;100.00;100978.06;7394752;19;20347;-52
2022/03/17 06:51:39;;;;;;;1.77;1.63;;;;;;;3.31;100.00;100980.44;7396439;19;20089;-53
2022/03/17 06:54:05;;;;;;;0.90;0.90;;;;;;;3.30;100.00;100978.06;7394641;19;20641;-52
2022/03/17 06:56:31;;;;;;;1.55;1.13;;;;;;;3.35;100.00;100985.91;7394030;19;20019;-52
2022/03/17 06:58:56;;;;;;;1.20;1.10;;;;;;;3.30;100.00;100994.56;7393129;19;20014;-52
2022/03/17 07:01:22;;;;;;;2.80;1.05;;;;;;;3.33;100.00;100994.56;7397558;19;20030;-52
2022/03/17 07:03:48;;;;;;;1.10;1.10;;;;;;;3.29;100.00;100988.28;7394565;19;20017;-52
2022/03/17 07:06:13;;;;;;;1.45;0.98;;;;;;;3.29;100.00;100984.75;7394775;19;20404;-52
2022/03/17 07:08:39;;;;;;;1.10;1.00;;;;;;;3.27;100.00;100987.13;7392528;19;20079;-52
2022/03/17 07:11:04;;;;;;;0.68;0.68;;;;;;;3.28;100.00;100985.94;7394670;19;20021;-52
2022/03/17 07:13:30;;;;;;;0.50;0.50;;;;;;;3.29;100.00;100993.03;7393553;19;20010;-54
2022/03/17 07:15:55;;;;;;;0.73;0.73;;;;;;;3.31;100.00;100991.44;7394039;19;20121;-52
2022/03/17 07:18:21;;;;;;;1.27;0.73;;;;;;;3.29;100.00;100990.25;7392063;19;20107;-52
2022/03/17 07:20:47;;;;;;;0.70;0.70;;;;;;;3.38;100.00;100996.13;7394722;19;20019;-51
2022/03/17 07:23:12;;;;;;;1.45;0.60;;;;;;;3.40;100.00;100999.28;7393159;19;20011;-52
2022/03/17 07:25:38;;;;;;;1.27;1.27;;;;;;;3.44;100.00;101000.03;7392898;19;20512;-52
2022/03/17 07:28:04;;;;;;;0.45;0.40;;;;;;;3.52;100.00;101015.34;7391148;19;20021;-52
2022/03/17 07:30:31;;;;;;;0.38;0.38;;;;;;;3.56;100.00;101003.13;7393267;19;20018;-52
2022/03/17 07:32:59;;;;;;;0.68;0.57;;;;;;;3.64;100.00;101014.88;7392460;19;20117;-51
2022/03/17 07:35:26;;;;;;;10.10;2.22;;;;;;;3.67;100.00;101019.63;7392003;19;20018;-51
2022/03/17 07:37:51;;;;;;;2.45;0.85;;;;;;;3.70;100.00;101016.06;7390861;19;20015;-51
2022/03/17 07:40:18;;;;;;;1.58;1.50;;;;;;;3.75;100.00;101015.63;7393228;19;20010;-51
2022/03/17 07:42:44;;;;;;;2.90;2.30;;;;;;;3.77;100.00;101013.25;7390739;19;20027;-52
2022/03/17 07:45:25;;;;;;;4.68;2.50;;;;;;;3.82;100.00;101015.59;7392915;19;20011;-52
2022/03/17 07:48:13;;;;;;;3.25;2.05;;;;;;;3.90;100.00;101010.84;7389726;19;20451;-51
2022/03/17 07:50:50;;;;;;;1.58;1.48;;;;;;;3.94;100.00;101012.41;7391749;19;20019;-51
2022/03/17 07:53:17;;;;;;;2.08;1.20;;;;;;;4.00;100.00;101021.03;7392665;19;20006;-52
2022/03/17 07:55:43;;;;;;;0.95;0.68;;;;;;;4.07;100.00;101013.47;7393140;19;20038;-52
2022/03/17 07:58:10;;;;;;;4.55;1.30;;;;;;;4.10;100.00;101020.97;7390239;19;20035;-52
2022/03/17 08:00:37;;;;;;;1.45;1.45;;;;;;;4.17;100.00;101020.91;7390589;19;20019;-52
2022/03/17 08:03:07;;;;;;;0.68;0.68;;;;;;;4.22;100.00;101020.47;7391490;19;20022;-52
2022/03/17 08:05:32;;;;;;;1.50;1.45;;;;;;;4.26;100.00;101024.03;7392596;19;20019;-52
2022/03/17 08:08:00;;;;;;;0.57;0.57;;;;;;;4.31;100.00;101031.84;7390842;19;20014;-52
2022/03/17 08:10:28;;;;;;;5.78;1.10;;;;;;;4.41;100.00;101030.22;7397996;19;20471;-52
2022/03/17 08:12:54;;;;;;;1.05;0.98;;;;;;;4.46;100.00;101038.06;7400668;19;20046;-52
2022/03/17 08:15:20;;;;;;;1.95;1.40;;;;;;;4.54;100.00;101034.06;7399726;19;20026;-52
2022/03/17 08:17:47;;;;;;;1.08;0.55;;;;;;;4.63;100.00;101032.38;7398755;19;20022;-52
2022/03/17 08:20:12;;;;;;;1.48;0.95;;;;;;;4.68;100.00;101035.91;7401013;19;20015;-52
2022/03/17 08:22:38;;;;;;;1.67;1.33;;;;;;;4.73;100.00;101035.47;7399784;19;20047;-52
2022/03/17 08:25:04;;;;;;;2.15;1.30;;;;;;;4.81;100.00;101042.50;7397418;19;20010;-52
2022/03/17 08:27:30;;;;;;;0.50;0.50;;;;;;;4.93;100.00;101039.25;7399143;19;20560;-58
2022/03/17 08:29:56;;;;;;;1.00;0.93;;;;;;;5.04;100.00;101037.16;7400430;19;20022;-60
2022/03/17 08:32:22;;;;;;;2.00;0.90;;;;;;;5.17;100.00;101038.22;7401469;19;20395;-60
2022/03/17 08:34:48;;;;;;;1.85;0.63;;;;;;;5.26;100.00;101044.06;7400382;19;20014;-60
2022/03/17 08:37:13;;;;;;;0.82;0.82;;;;;;;5.59;100.00;101045.28;7402468;19;20492;-59
2022/03/17 08:39:39;;;;;;;5.15;2.05;;;;;;;5.98;100.00;101049.13;7400860;19;20034;-58
2022/03/17 08:42:05;;;;;;;0.40;0.40;;;;;;;6.20;100.00;101048.81;7401809;19;20014;-58
2022/03/17 08:44:30;;;;;;;1.35;0.77;;;;;;;6.37;100.00;101056.88;7401960;19;20018;-58
2022/03/17 08:49:40;;;;;;;0.30;0.30;;;;;;;6.75;100.00;101057.50;7398935;19;20018;-58
2022/03/17 08:52:07;;;;;;;1.13;0.75;;;;;;;6.88;100.00;101055.69;7402834;19;20343;-58
2022/03/17 08:54:34;;;;;;;0.90;0.70;;;;;;;6.92;100.00;101059.19;7398851;19;20014;-59
2022/03/17 08:57:03;;;;;;;0.93;0.93;;;;;;;7.05;100.00;101057.38;7397710;19;20011;-58
2022/03/17 08:59:36;;;;;;;1.27;0.40;;;;;;;7.28;100.00;101051.00;7394473;19;20018;-58
2022/03/17 09:02:05;;;;;;;0.88;0.80;;;;;;;7.35;100.00;101051.69;7401120;19;20040;-58
2022/03/17 09:04:31;;;;;;;0.22;0.22;;;;;;;7.52;100.00;101058.09;7396097;19;20015;-58
2022/03/17 09:07:01;;;;;;;1.48;0.60;;;;;;;7.68;100.00;101057.38;7397995;19;20019;-58
2022/03/17 09:09:32;;;;;;;0.40;0.40;;;;;;;7.93;100.00;101072.31;7398274;19;20015;-59
2022/03/17 09:12:01;;;;;;;0.40;0.40;;;;;;;8.08;100.00;101083.88;7401501;19;20019;-59
2022/03/17 09:14:26;;;;;;;5.53;0.55;;;;;;;8.13;100.00;101078.63;7397541;19;20010;-58
2022/03/17 09:16:52;;;;;;;1.02;0.70;;;;;;;8.31;100.00;101072.72;7397985;19;20022;-59
2022/03/17 09:19:21;;;;;;;0.57;0.57;;;;;;;8.36;100.00;101078.53;7394872;19;20011;-58
2022/03/17 09:21:47;;;;;;;0.50;0.50;;;;;;;8.44;100.00;101081.94;7395092;19;20038;-58
2022/03/17 09:24:13;;;;;;;0.63;0.63;;;;;;;8.60;100.00;101095.06;7395516;19;20018;-58
2022/03/17 09:26:38;;;;;;;1.75;0.90;;;;;;;8.70;100.00;101105.94;7397320;19;20025;-59
2022/03/17 09:29:04;;;;;;;0.60;0.40;;;;;;;8.86;100.00;101097.59;7395411;19;20467;-58
2022/03/17 09:31:30;;;;;;;0.30;0.30;;;;;;;9.01;100.00;101093.25;7400122;19;20088;-58
2022/03/17 09:33:57;;;;;;;2.25;0.70;;;;;;;9.09;100.00;101094.66;7400924;19;20010;-59
2022/03/17 09:36:23;;;;;;;2.05;0.50;;;;;;;9.24;100.00;101097.06;7397426;19;20029;-59
2022/03/17 09:41:33;;;;;;;0.50;0.50;;;;;;;9.51;100.00;101101.09;7398525;19;20018;-58
2022/03/17 09:44:00;;;;;;;1.50;0.50;;;;;;;9.63;100.00;101108.72;7396684;19;20014;-59
2022/03/17 09:46:27;;;;;;;1.13;0.68;;;;;;;9.70;100.00;101107.75;7396169;19;20014;-58
2022/03/17 09:48:55;;;;;;;4.50;0.35;;;;;;;9.91;100.00;101104.38;7397071;19;20376;-59
2022/03/17 09:51:26;;;;;;;10.02;0.95;;;;;;;10.09;100.00;101112.97;7397942;19;20519;-59
2022/03/17 09:53:53;;;;;;;0.93;0.93;;;;;;;10.24;100.00;101105.81;7396802;19;20025;-59
2022/03/17 09:56:25;;;;;;;0.57;0.30;;;;;;;10.34;100.00;101101.94;7396595;19;20011;-60
2022/03/17 09:58:55;;;;;;;0.70;0.70;;;;;;;10.42;100.00;101100.50;7395280;19;20032;-59
2022/03/17 10:01:22;;;;;;;1.23;0.52;;;;;;;10.65;100.00;101102.19;7396101;19;20014;-59
2022/03/17 10:03:48;;;;;;;0.60;0.57;;;;;;;10.70;100.00;101090.47;7397718;19;20085;-60
2022/03/17 10:06:15;;;;;;;0.98;0.77;;;;;;;10.68;100.00;101090.13;7396360;19;20501;-59
2022/03/17 10:08:42;;;;;;;0.32;0.32;;;;;;;10.72;100.00;101090.03;7396293;19;20053;-59
2022/03/17 10:11:12;;;;;;;3.92;0.60;;;;;;;10.80;100.00;101094.16;7397725;19;20014;-59
2022/03/17 10:13:46;;;;;;;0.43;0.43;;;;;;;10.88;100.00;101092.69;7395709;19;20386;-59
2022/03/17 10:16:13;;;;;;;0.57;0.30;;;;;;;11.03;100.00;101082.63;7394986;19;20082;-59
2022/03/17 10:18:39;;;;;;;0.50;0.50;;;;;;;11.17;100.00;101080.16;7392225;19;20026;-59
2022/03/17 10:21:17;;;;;;;3.92;1.35;;;;;;;11.33;100.00;101090.34;7396243;19;20467;-59
2022/03/17 10:23:48;;;;;;;12.82;1.42;;;;;;;11.47;100.00;101095.47;7395589;19;20025;-59
2022/03/17 10:26:51;;;;;;;2.65;0.68;;;;;;;11.52;100.00;101086.50;7395605;19;20029;-59
2022/03/17 10:29:22;;;;;;;0.30;0.30;;;;;;;11.58;100.00;101095.88;7391754;19;20025;-59
2022/03/17 10:31:54;;;;;;;6.20;0.77;;;;;;;11.54;100.00;101100.00;7396952;19;20014;-59
2022/03/17 10:34:21;;;;;;;1.10;0.32;;;;;;;11.62;100.00;101102.09;7395527;19;20033;-59
2022/03/17 10:36:47;;;;;;;1.83;0.55;;;;;;;11.78;100.00;101104.72;7394638;19;20424;-59
2022/03/17 10:39:13;;;;;;;1.02;0.40;;;;;;;11.84;100.00;101099.34;7394022;19;20027;-59
2022/03/17 10:41:43;;;;;;;1.55;0.63;;;;;;;12.11;100.00;101100.31;7396689;19;20015;-59
2022/03/17 10:44:11;;;;;;;0.35;0.32;;;;;;;12.11;100.00;101100.31;7395301;19;20036;-58
2022/03/17 10:46:37;;;;;;;5.15;0.40;;;;;;;12.21;100.00;101097.59;7395427;19;20018;-59
2022/03/17 10:49:05;;;;;;;4.40;0.50;;;;;;;12.30;100.00;101101.19;7394470;19;20022;-59
2022/03/17 10:51:41;;;;;;;1.17;0.52;;;;;;;12.46;100.00;101103.00;7395466;19;20041;-58
2022/03/17 10:54:11;;;;;;;1.05;0.75;;;;;;;12.55;100.00;101100.25;7393173;19;20347;-60
2022/03/17 10:56:38;;;;;;;0.10;0.10;;;;;;;12.60;100.00;101097.66;7394725;19;20047;-58
2022/03/17 10:59:08;;;;;;;0.20;0.20;;;;;;;12.74;100.00;101118.66;7392630;19;20078;-58
2022/03/17 11:01:45;;;;;;;0.15;0.15;;;;;;;12.96;100.00;101113.75;7397749;19;20035;-59
2022/03/17 11:04:12;;;;;;;0.38;0.35;;;;;;;13.12;100.00;101110.75;7394531;19;20027;-58
2022/03/17 11:06:41;;;;;;;0.70;0.38;;;;;;;13.26;100.00;101109.34;7394581;19;20015;-58
2022/03/17 11:09:10;;;;;;;0.40;0.32;;;;;;;13.34;100.00;101110.63;7392810;19;20015;-58
2022/03/17 11:11:37;;;;;;;0.28;0.28;;;;;;;13.45;100.00;101114.50;7397387;19;20018;-58
2022/03/17 11:14:04;;;;;;;1.45;0.38;;;;;;;13.48;100.00;101113.59;7393656;19;20026;-59
2022/03/17 11:16:57;;;;;;;0.60;0.40;;;;;;;13.54;100.00;101114.53;7392880;19;20019;-58
2022/03/17 11:19:24;;;;;;;1.13;0.45;;;;;;;13.50;100.00;101118.72;7392112;19;20026;-59
2022/03/17 11:22:05;;;;;;;0.95;0.68;;;;;;;13.51;100.00;101107.06;7397647;19;20010;-59
2022/03/17 11:24:31;;;;;;;0.20;0.20;;;;;;;13.52;100.00;101121.81;7394447;19;20359;-59
2022/03/17 11:27:09;;;;;;;1.33;0.85;;;;;;;13.50;100.00;101129.91;7391426;19;20215;-59
2022/03/17 11:29:44;;;;;;;0.65;0.40;;;;;;;13.50;100.00;101122.31;7393561;19;20026;-58
2022/03/17 11:32:31;;;;;;;2.08;0.60;;;;;;;13.48;100.00;101132.41;7396534;19;20022;-59
2022/03/17 11:35:17;;;;;;;2.30;0.75;;;;;;;13.48;100.00;101127.59;7393710;19;20115;-59
2022/03/17 11:37:43;;;;;;;1.58;0.52;;;;;;;13.53;100.00;101121.38;7393206;19;20114;-59
2022/03/17 11:40:19;;;;;;;0.30;0.30;;;;;;;13.68;100.00;101119.53;7394084;19;20468;-59
2022/03/17 11:42:49;;;;;;;0.43;0.32;;;;;;;13.85;100.00;101117.19;7393039;19;20037;-58